createdAt,value
2022-11-20T00:01:54.897Z,3.63
2022-11-20T00:04:21.662Z,3.73
2022-11-20T00:06:48.308Z,3.87
2022-11-20T00:09:15.023Z,3.70
2022-11-20T00:11:41.780Z,3.70
2022-11-20T00:14:09.936Z,3.90
2022-11-20T00:16:36.590Z,4.80
2022-11-20T00:19:03.284Z,3.47
2022-11-20T00:21:30.150Z,4.40
2022-11-20T00:24:00.370Z,4.10
2022-11-20T00:26:27.827Z,3.97
2022-11-20T00:28:59.265Z,3.80
2022-11-20T00:31:25.990Z,3.93
2022-11-20T00:33:55.307Z,3.60
2022-11-20T00:36:27.937Z,4.07
2022-11-20T00:38:57.959Z,3.67
2022-11-20T00:41:25.081Z,3.80
2022-11-20T00:43:55.625Z,3.83
2022-11-20T00:46:26.089Z,3.50
2022-11-20T00:48:52.832Z,3.73
2022-11-20T00:51:20.899Z,3.87
2022-11-20T00:53:49.461Z,3.90
2022-11-20T00:56:18.043Z,3.43
2022-11-20T00:58:45.638Z,3.90
2022-11-20T01:01:14.263Z,3.57
2022-11-20T01:03:50.376Z,3.53
2022-11-20T01:06:22.982Z,4.20
2022-11-20T01:08:50.155Z,3.80
2022-11-20T01:11:20.970Z,3.93
2022-11-20T01:13:48.347Z,3.93
2022-11-20T01:16:27.949Z,3.83
2022-11-20T01:18:55.713Z,3.73
2022-11-20T01:21:33.678Z,3.50
2022-11-20T01:24:00.602Z,3.53
2022-11-20T01:26:32.548Z,3.33
2022-11-20T01:29:06.445Z,3.37
2022-11-20T01:31:34.591Z,3.80
2022-11-20T01:34:11.555Z,3.80
2022-11-20T01:36:38.569Z,3.67
2022-11-20T01:39:13.173Z,3.03
2022-11-20T01:41:58.339Z,3.57
2022-11-20T01:44:46.409Z,3.77
2022-11-20T01:47:16.542Z,3.40
2022-11-20T01:49:51.431Z,3.40
2022-11-20T01:52:25.845Z,3.60
2022-11-20T01:55:12.770Z,3.47
2022-11-20T01:57:42.184Z,3.70
2022-11-20T02:00:12.828Z,3.80
2022-11-20T02:02:43.183Z,3.73
2022-11-20T02:05:26.128Z,3.97
2022-11-20T02:07:55.091Z,3.07
2022-11-20T02:10:21.936Z,3.83
2022-11-20T02:13:10.466Z,3.47
2022-11-20T02:15:37.231Z,3.40
2022-11-20T02:18:10.489Z,3.50
2022-11-20T02:20:37.202Z,3.43
2022-11-20T02:23:06.662Z,3.70
2022-11-20T02:25:33.376Z,3.30
2022-11-20T02:28:00.348Z,3.57
2022-11-20T02:30:29.489Z,3.60
2022-11-20T02:32:56.307Z,3.30
2022-11-20T02:35:22.839Z,3.50
2022-11-20T02:37:50.057Z,3.40
2022-11-20T02:40:16.879Z,3.60
2022-11-20T02:42:45.751Z,3.70
2022-11-20T02:45:17.278Z,3.70
2022-11-20T02:47:44.039Z,3.40
2022-11-20T02:50:10.898Z,3.40
2022-11-20T02:52:37.605Z,3.50
2022-11-20T02:55:04.651Z,3.57
2022-11-20T02:57:31.332Z,3.43
2022-11-20T03:00:00.718Z,3.63
2022-11-20T03:02:30.426Z,3.77
2022-11-20T03:04:57.108Z,3.70
2022-11-20T03:07:25.878Z,3.60
2022-11-20T03:09:52.633Z,3.87
2022-11-20T03:12:19.411Z,3.80
2022-11-20T03:14:50.223Z,3.40
2022-11-20T03:17:19.517Z,3.77
2022-11-20T03:19:46.400Z,3.70
2022-11-20T03:22:13.034Z,3.70
2022-11-20T03:24:39.707Z,3.43
2022-11-20T03:27:06.773Z,3.37
2022-11-20T03:29:33.514Z,3.73
2022-11-20T03:32:00.276Z,3.60
2022-11-20T03:34:26.887Z,3.20
2022-11-20T03:36:53.595Z,3.50
2022-11-20T03:39:20.385Z,3.20
2022-11-20T03:41:47.294Z,3.70
2022-11-20T03:44:13.957Z,3.60
2022-11-20T03:46:40.667Z,3.80
2022-11-20T03:49:13.709Z,3.57
2022-11-20T03:51:40.415Z,3.73
2022-11-20T03:54:08.213Z,3.67
2022-11-20T03:56:41.306Z,3.73
2022-11-20T03:59:11.460Z,3.00
2022-11-20T04:01:43.196Z,3.37
2022-11-20T04:04:16.200Z,3.70
2022-11-20T04:06:42.953Z,3.53
2022-11-20T04:09:09.675Z,3.43
2022-11-20T04:11:40.059Z,3.80
2022-11-20T04:14:07.522Z,3.60
2022-11-20T04:16:35.897Z,3.43
2022-11-20T04:19:11.781Z,3.67
2022-11-20T04:21:38.515Z,4.73
2022-11-20T04:24:05.522Z,3.20
2022-11-20T04:26:32.310Z,3.53
2022-11-20T04:29:06.018Z,3.70
2022-11-20T04:31:34.652Z,3.47
2022-11-20T04:34:05.813Z,3.07
2022-11-20T04:36:32.549Z,3.50
2022-11-20T04:39:05.078Z,3.40
2022-11-20T04:41:33.543Z,3.70
2022-11-20T04:44:03.520Z,2.90
2022-11-20T04:46:36.924Z,3.53
2022-11-20T04:49:03.670Z,3.20
2022-11-20T04:51:31.758Z,3.80
2022-11-20T04:53:58.395Z,3.57
2022-11-20T04:56:25.129Z,3.37
2022-11-20T04:58:51.920Z,3.10
2022-11-20T05:01:23.446Z,3.67
2022-11-20T05:03:50.439Z,3.70
2022-11-20T05:06:26.802Z,3.40
2022-11-20T05:08:53.487Z,2.90
2022-11-20T05:11:21.269Z,3.20
2022-11-20T05:13:48.355Z,3.00
2022-11-20T05:16:20.205Z,2.87
2022-11-20T05:18:49.724Z,3.30
2022-11-20T05:21:16.501Z,2.77
2022-11-20T05:23:45.391Z,3.10
2022-11-20T05:26:20.110Z,2.90
2022-11-20T05:28:47.009Z,2.80
2022-11-20T05:31:21.960Z,3.20
2022-11-20T05:33:52.850Z,2.73
2022-11-20T05:36:19.563Z,2.67
2022-11-20T05:38:49.068Z,2.93
2022-11-20T05:41:18.881Z,2.80
2022-11-20T05:43:46.265Z,2.90
2022-11-20T05:46:14.808Z,2.70
2022-11-20T05:48:42.142Z,2.70
2022-11-20T05:51:13.363Z,3.10
2022-11-20T05:53:45.165Z,2.63
2022-11-20T05:56:19.121Z,2.80
2022-11-20T05:58:49.135Z,2.80
2022-11-20T06:01:23.461Z,3.17
2022-11-20T06:03:53.538Z,3.10
2022-11-20T06:06:20.578Z,2.70
2022-11-20T06:08:48.354Z,2.57
2022-11-20T06:11:15.466Z,2.80
2022-11-20T06:13:42.788Z,2.97
2022-11-20T06:16:10.216Z,2.80
2022-11-20T06:18:36.865Z,2.23
2022-11-20T06:21:11.160Z,2.40
2022-11-20T06:23:37.847Z,2.97
2022-11-20T06:26:05.724Z,2.63
2022-11-20T06:28:32.522Z,2.63
2022-11-20T06:30:59.860Z,2.73
2022-11-20T06:33:29.761Z,2.67
2022-11-20T06:36:05.906Z,2.50
2022-11-20T06:38:36.929Z,2.80
2022-11-20T06:41:05.221Z,2.60
2022-11-20T06:43:31.819Z,2.33
2022-11-20T06:45:58.984Z,3.00
2022-11-20T06:48:26.828Z,2.57
2022-11-20T06:50:53.464Z,2.70
2022-11-20T06:53:20.088Z,2.80
2022-11-20T06:55:47.335Z,2.53
2022-11-20T06:58:14.472Z,2.80
2022-11-20T07:00:41.590Z,2.40
2022-11-20T07:03:09.473Z,2.67
2022-11-20T07:05:36.263Z,2.40
2022-11-20T07:08:03.566Z,2.33
2022-11-20T07:10:30.127Z,2.30
2022-11-20T07:12:56.654Z,2.50
2022-11-20T07:15:23.922Z,2.80
2022-11-20T07:17:50.532Z,2.53
2022-11-20T07:20:17.822Z,2.40
2022-11-20T07:22:45.362Z,2.50
2022-11-20T07:25:11.934Z,2.27
2022-11-20T07:27:38.632Z,2.50
2022-11-20T07:30:06.585Z,2.70
2022-11-20T07:32:33.179Z,2.70
2022-11-20T07:34:59.897Z,2.20
2022-11-20T07:37:26.419Z,2.60
2022-11-20T07:39:52.946Z,2.27
2022-11-20T07:42:19.454Z,2.40
2022-11-20T07:44:46.003Z,2.20
2022-11-20T07:47:12.616Z,2.70
2022-11-20T07:49:39.120Z,2.40
2022-11-20T07:52:05.639Z,2.50
2022-11-20T07:54:32.189Z,2.57
2022-11-20T07:56:58.713Z,2.60
2022-11-20T07:59:25.592Z,2.60
2022-11-20T08:01:52.130Z,2.80
2022-11-20T08:04:18.690Z,2.43
2022-11-20T08:06:45.175Z,2.43
2022-11-20T08:09:11.774Z,2.83
2022-11-20T08:11:57.295Z,5.13
2022-11-20T08:14:23.848Z,2.90
2022-11-20T08:16:50.620Z,2.97
2022-11-20T08:19:20.713Z,3.43
2022-11-20T08:21:47.447Z,3.13
2022-11-20T08:24:14.044Z,2.67
2022-11-20T08:26:40.651Z,2.50
2022-11-20T08:29:07.138Z,3.33
2022-11-20T08:31:33.753Z,2.60
2022-11-20T08:34:00.322Z,3.23
2022-11-20T08:36:26.911Z,4.23
2022-11-20T08:38:56.641Z,5.30
2022-11-20T08:41:29.047Z,2.30
2022-11-20T08:43:57.347Z,3.23
2022-11-20T08:46:25.241Z,2.30
2022-11-20T08:48:51.896Z,2.13
2022-11-20T08:51:18.581Z,3.33
2022-11-20T08:53:45.198Z,3.00
2022-11-20T08:56:12.002Z,3.40
2022-11-20T08:59:02.013Z,2.50
2022-11-20T09:01:25.913Z,2.97
2022-11-20T09:03:52.552Z,2.03
2022-11-20T09:06:19.206Z,2.47
2022-11-20T09:08:45.793Z,2.90
2022-11-20T09:11:12.399Z,3.50
2022-11-20T09:13:38.975Z,3.87
2022-11-20T09:16:07.584Z,2.80
2022-11-20T09:18:34.740Z,3.17
2022-11-20T09:21:01.816Z,3.40
2022-11-20T09:23:28.876Z,2.70
2022-11-20T09:25:56.729Z,3.67
2022-11-20T09:28:23.404Z,2.87
2022-11-20T09:30:49.992Z,2.63
2022-11-20T09:33:16.498Z,3.63
2022-11-20T09:35:44.479Z,2.30
2022-11-20T09:38:11.788Z,2.70
2022-11-20T09:40:40.606Z,2.20
2022-11-20T09:43:36.364Z,5.83
2022-11-20T09:46:18.169Z,2.23
2022-11-20T09:49:00.049Z,4.63
2022-11-20T09:51:31.916Z,2.43
2022-11-20T09:54:16.526Z,2.13
2022-11-20T09:56:45.635Z,3.33
2022-11-20T09:59:36.150Z,1.77
2022-11-20T10:02:04.083Z,3.87
2022-11-20T10:04:31.212Z,2.40
2022-11-20T10:07:37.008Z,2.23
2022-11-20T10:10:03.797Z,2.20
2022-11-20T10:13:04.395Z,2.07
2022-11-20T10:15:58.959Z,3.40
2022-11-20T10:18:43.962Z,2.60
2022-11-20T10:21:34.596Z,2.00
2022-11-20T10:24:19.048Z,2.80
2022-11-20T10:27:03.383Z,5.07
2022-11-20T10:29:37.539Z,4.70
2022-11-20T10:32:08.445Z,3.03
2022-11-20T10:34:58.379Z,4.13
2022-11-20T10:37:29.107Z,2.37
2022-11-20T10:40:00.869Z,2.30
2022-11-20T10:42:35.692Z,2.10
2022-11-20T10:45:34.464Z,3.37
2022-11-20T10:48:22.384Z,1.93
2022-11-20T10:50:55.154Z,2.53
2022-11-20T10:56:08.987Z,2.20
2022-11-20T10:58:35.746Z,1.67
2022-11-20T11:01:15.538Z,2.03
2022-11-20T11:03:43.978Z,2.00
2022-11-20T11:06:19.081Z,2.20
2022-11-20T11:08:45.795Z,2.87
2022-11-20T11:11:29.641Z,2.13
2022-11-20T11:14:10.752Z,2.10
2022-11-20T11:16:41.975Z,3.17
2022-11-20T11:19:13.216Z,2.33
2022-11-20T11:21:44.707Z,3.60
2022-11-20T11:24:41.171Z,3.00
2022-11-20T11:27:17.327Z,2.70
2022-11-20T11:29:44.483Z,2.03
2022-11-20T11:32:18.343Z,1.97
2022-11-20T11:34:45.091Z,1.90
2022-11-20T11:37:18.468Z,4.00
2022-11-20T11:39:45.331Z,3.00
2022-11-20T11:42:18.741Z,3.77
2022-11-20T11:45:04.425Z,4.17
2022-11-20T11:47:38.032Z,2.07
2022-11-20T11:50:10.733Z,3.60
2022-11-20T11:53:10.179Z,7.17
2022-11-20T11:55:43.063Z,5.63
2022-11-20T11:58:14.096Z,3.00
2022-11-20T12:00:42.169Z,3.17
2022-11-20T12:03:19.477Z,3.10
2022-11-20T12:05:48.045Z,5.87
2022-11-20T12:08:27.629Z,6.17
2022-11-20T12:11:00.803Z,6.53
2022-11-20T12:13:33.370Z,5.87
2022-11-20T12:16:00.019Z,6.20
2022-11-20T12:18:26.610Z,5.23
2022-11-20T12:20:53.035Z,6.20
2022-11-20T12:23:26.670Z,7.53
2022-11-20T12:25:54.090Z,7.13
2022-11-20T12:29:05.944Z,4.40
2022-11-20T12:31:54.440Z,4.13
2022-11-20T12:34:37.567Z,7.73
2022-11-20T12:37:07.942Z,5.17
2022-11-20T12:39:36.508Z,6.73
2022-11-20T12:42:40.845Z,7.57
2022-11-20T12:45:45.745Z,4.73
2022-11-20T12:48:34.253Z,5.77
2022-11-20T12:51:16.352Z,5.27
2022-11-20T12:53:58.200Z,5.67
2022-11-20T12:56:51.137Z,5.03
2022-11-20T12:59:55.817Z,5.83
2022-11-20T13:02:44.225Z,3.30
2022-11-20T13:05:25.684Z,6.00
2022-11-20T13:07:53.296Z,6.57
2022-11-20T13:10:41.175Z,6.27
2022-11-20T13:13:30.350Z,6.23
2022-11-20T13:16:05.504Z,5.23
2022-11-20T13:18:37.600Z,4.50
2022-11-20T13:21:14.634Z,4.63
2022-11-20T13:23:41.342Z,4.63
2022-11-20T13:26:19.886Z,3.43
2022-11-20T13:28:47.812Z,4.63
2022-11-20T13:31:31.063Z,2.77
2022-11-20T13:33:57.747Z,3.47
2022-11-20T13:36:27.091Z,3.87
2022-11-20T13:38:54.872Z,4.37
2022-11-20T13:41:41.027Z,4.00
2022-11-20T13:44:25.355Z,3.50
2022-11-20T13:46:52.092Z,5.83
2022-11-20T13:49:33.425Z,3.33
2022-11-20T13:52:29.707Z,3.83
2022-11-20T13:55:13.454Z,4.13
2022-11-20T13:57:55.322Z,3.90
2022-11-20T14:00:23.115Z,4.37
2022-11-20T14:03:07.749Z,4.23
2022-11-20T14:05:36.941Z,3.63
2022-11-20T14:08:05.514Z,3.40
2022-11-20T14:10:32.699Z,3.00
2022-11-20T14:12:59.634Z,3.67
2022-11-20T14:15:33.108Z,3.17
2022-11-20T14:17:59.692Z,2.77
2022-11-20T14:20:29.276Z,3.43
2022-11-20T14:22:55.923Z,2.80
2022-11-20T14:25:24.331Z,2.80
2022-11-20T14:28:01.690Z,2.60
2022-11-20T14:30:45.235Z,3.23
2022-11-20T14:33:12.600Z,2.87
2022-11-20T14:35:45.735Z,3.50
2022-11-20T14:38:14.519Z,4.03
2022-11-20T14:40:41.062Z,3.20
2022-11-20T14:43:19.303Z,2.50
2022-11-20T14:45:59.983Z,2.97
2022-11-20T14:48:35.201Z,3.60
2022-11-20T14:51:02.970Z,4.10
2022-11-20T14:53:29.570Z,4.03
2022-11-20T14:56:00.045Z,2.77
2022-11-20T14:58:35.719Z,3.43
2022-11-20T15:01:06.746Z,2.50
2022-11-20T15:03:38.452Z,2.40
2022-11-20T15:06:06.174Z,3.00
2022-11-20T15:08:32.686Z,3.10
2022-11-20T15:10:59.323Z,1.77
2022-11-20T15:13:33.778Z,2.10
2022-11-20T15:16:01.412Z,2.30
2022-11-20T15:18:30.222Z,2.47
2022-11-20T15:20:57.627Z,3.30
2022-11-20T15:23:24.397Z,2.40
2022-11-20T15:25:51.077Z,2.43
2022-11-20T15:28:35.252Z,3.43
2022-11-20T15:31:03.246Z,2.27
2022-11-20T15:33:30.169Z,2.30
2022-11-20T15:35:56.734Z,2.27
2022-11-20T15:38:23.325Z,2.97
2022-11-20T15:40:49.938Z,3.13
2022-11-20T15:43:16.524Z,2.27
2022-11-20T15:45:44.239Z,3.30
2022-11-20T15:48:15.944Z,2.63
2022-11-20T15:50:48.569Z,2.30
2022-11-20T15:53:15.170Z,2.67
2022-11-20T15:55:41.746Z,2.83
2022-11-20T15:58:08.333Z,2.40
2022-11-20T16:00:34.921Z,2.63
2022-11-20T16:03:01.523Z,2.30
2022-11-20T16:05:29.959Z,2.17
2022-11-20T16:07:56.651Z,2.37
2022-11-20T16:10:23.774Z,2.90
2022-11-20T16:13:09.098Z,2.40
2022-11-20T16:15:48.267Z,2.37
2022-11-20T16:18:19.703Z,2.20
2022-11-20T16:20:53.669Z,2.57
2022-11-20T16:23:21.293Z,3.70
2022-11-20T16:25:48.295Z,2.00
2022-11-20T16:28:18.831Z,2.40
2022-11-20T16:30:49.120Z,2.47
2022-11-20T16:33:16.683Z,2.90
2022-11-20T16:35:43.307Z,2.30
2022-11-20T16:38:10.139Z,3.47
2022-11-20T16:40:36.944Z,2.33
2022-11-20T16:43:13.473Z,2.23
2022-11-20T16:45:44.232Z,2.63
2022-11-20T16:48:15.189Z,2.37
2022-11-20T16:50:49.420Z,2.10
2022-11-20T16:53:16.532Z,2.33
2022-11-20T16:55:43.034Z,4.13
2022-11-20T16:58:09.954Z,2.30
2022-11-20T17:00:37.984Z,2.20
2022-11-20T17:03:05.476Z,2.10
2022-11-20T17:05:32.476Z,2.47
2022-11-20T17:07:59.052Z,2.53
2022-11-20T17:10:25.657Z,2.57
2022-11-20T17:12:52.221Z,2.20
2022-11-20T17:15:18.879Z,2.97
2022-11-20T17:17:45.495Z,2.23
2022-11-20T17:20:12.447Z,2.23
2022-11-20T17:22:39.396Z,1.80
2022-11-20T17:25:06.227Z,2.83
2022-11-20T17:27:33.677Z,2.97
2022-11-20T17:30:00.293Z,2.23
2022-11-20T17:35:02.099Z,2.13
2022-11-20T17:37:28.604Z,3.13
2022-11-20T17:39:55.297Z,2.43
2022-11-20T17:42:29.446Z,2.87
2022-11-20T17:44:59.111Z,2.23
2022-11-20T17:47:26.058Z,1.90
2022-11-20T17:49:53.513Z,2.70
2022-11-20T17:52:20.405Z,7.07
2022-11-20T17:54:46.972Z,2.73
2022-11-20T17:57:32.355Z,2.03
2022-11-20T17:59:58.913Z,2.23
2022-11-20T18:02:25.486Z,2.00
2022-11-20T18:04:52.081Z,2.10
2022-11-20T18:07:18.697Z,2.30
2022-11-20T18:09:45.255Z,2.20
2022-11-20T18:12:12.119Z,2.50
2022-11-20T18:14:38.663Z,2.30
2022-11-20T18:17:10.369Z,2.20
2022-11-20T18:19:51.693Z,2.00
2022-11-20T18:22:27.403Z,2.10
2022-11-20T18:24:53.932Z,2.60
2022-11-20T18:27:20.829Z,2.17
2022-11-20T18:29:48.733Z,2.23
2022-11-20T18:32:15.290Z,2.63
2022-11-20T18:34:41.892Z,1.80
2022-11-20T18:37:09.989Z,2.50
2022-11-20T18:39:36.861Z,1.93
2022-11-20T18:42:21.914Z,2.43
2022-11-20T18:44:51.375Z,3.93
2022-11-20T18:47:22.809Z,4.80
2022-11-20T18:49:52.357Z,2.07
2022-11-20T18:52:24.148Z,2.40
2022-11-20T18:54:51.074Z,2.40
2022-11-20T18:57:18.713Z,2.10
2022-11-20T18:59:45.620Z,2.13
2022-11-20T19:02:13.552Z,2.17
2022-11-20T19:04:40.203Z,2.77
2022-11-20T19:07:06.951Z,2.70
2022-11-20T19:09:36.729Z,2.20
2022-11-20T19:12:03.425Z,2.00
2022-11-20T19:14:30.064Z,2.67
2022-11-20T19:16:56.809Z,3.97
2022-11-20T19:19:23.566Z,2.20
2022-11-20T19:21:51.604Z,3.70
2022-11-20T19:24:18.191Z,2.37
2022-11-20T19:26:44.956Z,3.47
2022-11-20T19:29:13.469Z,2.90
2022-11-20T19:31:40.088Z,2.70
2022-11-20T19:34:06.669Z,2.13
2022-11-20T19:36:43.193Z,2.87
2022-11-20T19:39:11.487Z,4.23
2022-11-20T19:41:38.827Z,3.83
2022-11-20T19:44:07.036Z,2.47
2022-11-20T19:46:34.567Z,2.27
2022-11-20T19:49:01.288Z,2.73
2022-11-20T19:51:29.992Z,3.07
2022-11-20T19:53:57.385Z,5.10
2022-11-20T19:56:24.580Z,3.20
2022-11-20T19:58:52.491Z,2.53
2022-11-20T20:01:20.454Z,2.47
2022-11-20T20:03:47.340Z,5.43
2022-11-20T20:06:18.308Z,2.00
2022-11-20T20:08:45.035Z,2.20
2022-11-20T20:11:15.016Z,2.73
2022-11-20T20:13:41.942Z,2.20
2022-11-20T20:16:13.373Z,2.47
2022-11-20T20:18:39.918Z,2.30
2022-11-20T20:21:08.195Z,2.50
2022-11-20T20:23:35.575Z,2.03
2022-11-20T20:26:02.499Z,1.97
2022-11-20T20:28:29.099Z,3.07
2022-11-20T20:30:55.797Z,2.27
2022-11-20T20:33:22.500Z,2.10
2022-11-20T20:35:49.171Z,2.33
2022-11-20T20:38:15.780Z,2.60
2022-11-20T20:40:49.628Z,2.37
2022-11-20T20:43:16.748Z,2.43
2022-11-20T20:45:47.891Z,2.13
2022-11-20T20:48:18.285Z,2.47
2022-11-20T20:50:58.372Z,2.03
2022-11-20T20:53:25.178Z,2.20
2022-11-20T20:55:58.994Z,2.10
2022-11-20T20:58:25.926Z,3.63
2022-11-20T21:00:52.529Z,2.23
2022-11-20T21:03:19.307Z,2.33
2022-11-20T21:05:45.972Z,2.27
2022-11-20T21:08:21.469Z,2.30
2022-11-20T21:10:52.382Z,2.40
2022-11-20T21:13:19.863Z,2.30
2022-11-20T21:15:48.025Z,2.20
2022-11-20T21:18:19.273Z,2.30
2022-11-20T21:21:04.586Z,2.30
2022-11-20T21:23:31.397Z,2.00
2022-11-20T21:26:00.662Z,2.30
2022-11-20T21:28:27.215Z,2.43
2022-11-20T21:30:53.748Z,2.63
2022-11-20T21:33:20.295Z,2.20
2022-11-20T21:35:46.929Z,2.33
2022-11-20T21:38:13.517Z,2.47
2022-11-20T21:40:40.132Z,3.40
2022-11-20T21:43:06.747Z,2.30
2022-11-20T21:45:33.370Z,2.17
2022-11-20T21:48:00.121Z,1.90
2022-11-20T21:50:26.659Z,2.27
2022-11-20T21:52:53.267Z,2.17
2022-11-20T21:55:19.827Z,3.00
2022-11-20T21:57:46.453Z,2.37
2022-11-20T22:00:13.445Z,2.47
2022-11-20T22:02:40.456Z,1.97
2022-11-20T22:05:07.990Z,2.07
2022-11-20T22:07:35.289Z,1.97
2022-11-20T22:10:01.955Z,2.03
2022-11-20T22:12:28.557Z,2.20
2022-11-20T22:14:55.140Z,1.80
2022-11-20T22:17:41.695Z,2.00
2022-11-20T22:20:09.306Z,2.20
2022-11-20T22:22:35.875Z,2.00
2022-11-20T22:25:02.472Z,2.10
2022-11-20T22:27:29.090Z,2.47
2022-11-20T22:29:55.828Z,2.20
2022-11-20T22:32:22.328Z,1.83
2022-11-20T22:34:48.891Z,1.90
2022-11-20T22:37:15.398Z,2.30
2022-11-20T22:39:42.052Z,2.00
2022-11-20T22:42:08.641Z,2.00
2022-11-20T22:44:35.196Z,2.20
2022-11-20T22:47:01.805Z,2.00
2022-11-20T22:49:28.403Z,2.00
2022-11-20T22:51:55.068Z,2.00
2022-11-20T22:54:21.818Z,2.07
2022-11-20T22:56:49.082Z,2.23
2022-11-20T22:59:18.407Z,2.20
2022-11-20T23:01:44.959Z,1.90
2022-11-20T23:04:11.840Z,2.20
2022-11-20T23:06:38.457Z,1.90
2022-11-20T23:09:06.032Z,1.87
2022-11-20T23:14:14.170Z,2.17
2022-11-20T23:16:40.674Z,1.93
2022-11-20T23:19:08.881Z,1.97
2022-11-20T23:21:36.344Z,1.80
2022-11-20T23:24:02.963Z,2.00
2022-11-20T23:26:31.011Z,2.20
2022-11-20T23:28:58.205Z,2.07
2022-11-20T23:31:25.181Z,1.67
2022-11-20T23:33:51.732Z,1.70
2022-11-20T23:36:20.788Z,2.00
2022-11-20T23:38:47.318Z,1.90
2022-11-20T23:41:14.023Z,1.90
2022-11-20T23:43:40.523Z,2.10
2022-11-20T23:46:07.077Z,2.20
2022-11-20T23:48:34.739Z,2.20
2022-11-20T23:51:01.387Z,1.80
2022-11-20T23:53:28.071Z,1.80
2022-11-20T23:55:58.527Z,2.00
2022-11-20T23:58:26.862Z,3.10
